sensor_id;sensor_type;location;lat;lon;timestamp;temperature;humidity
3226;DHT22;1625;49.884;8.666;2023-01-24T00:00:27;3.40;99.90
3226;DHT22;1625;49.884;8.666;2023-01-24T00:02:52;3.40;99.90
3226;DHT22;1625;49.884;8.666;2023-01-24T00:05:19;3.40;99.90
3226;DHT22;1625;49.884;8.666;2023-01-24T00:07:45;3.40;99.90
3226;DHT22;1625;49.884;8.666;2023-01-24T00:10:10;3.40;99.90
3226;DHT22;1625;49.884;8.666;2023-01-24T00:12:36;3.50;99.90
3226;DHT22;1625;49.884;8.666;2023-01-24T00:15:02;3.50;99.90
3226;DHT22;1625;49.884;8.666;2023-01-24T00:17:27;3.50;99.90
3226;DHT22;1625;49.884;8.666;2023-01-24T00:19:53;3.50;99.90
3226;DHT22;1625;49.884;8.666;2023-01-24T00:22:18;3.40;99.90
3226;DHT22;1625;49.884;8.666;2023-01-24T00:24:44;3.40;99.90
3226;DHT22;1625;49.884;8.666;2023-01-24T00:27:09;3.40;99.90
3226;DHT22;1625;49.884;8.666;2023-01-24T00:29:35;3.40;99.90
3226;DHT22;1625;49.884;8.666;2023-01-24T00:32:00;3.30;99.90
3226;DHT22;1625;49.884;8.666;2023-01-24T00:34:26;3.30;99.90
3226;DHT22;1625;49.884;8.666;2023-01-24T00:36:51;3.40;99.90
3226;DHT22;1625;49.884;8.666;2023-01-24T00:39:17;3.20;99.90
3226;DHT22;1625;49.884;8.666;2023-01-24T00:41:42;3.20;99.90
3226;DHT22;1625;49.884;8.666;2023-01-24T00:44:08;3.20;99.90
3226;DHT22;1625;49.884;8.666;2023-01-24T00:46:33;3.30;99.90
3226;DHT22;1625;49.884;8.666;2023-01-24T00:48:59;3.30;99.90
3226;DHT22;1625;49.884;8.666;2023-01-24T00:51:25;3.40;99.90
3226;DHT22;1625;49.884;8.666;2023-01-24T00:53:51;3.40;99.90
3226;DHT22;1625;49.884;8.666;2023-01-24T00:56:16;3.40;99.90
3226;DHT22;1625;49.884;8.666;2023-01-24T00:58:42;3.30;99.90
3226;DHT22;1625;49.884;8.666;2023-01-24T01:01:07;3.20;99.90
3226;DHT22;1625;49.884;8.666;2023-01-24T01:03:33;3.30;99.90
3226;DHT22;1625;49.884;8.666;2023-01-24T01:06:07;2.30;99.90
3226;DHT22;1625;49.884;8.666;2023-01-24T01:08:34;3.30;99.90
3226;DHT22;1625;49.884;8.666;2023-01-24T01:11:01;3.30;99.90
3226;DHT22;1625;49.884;8.666;2023-01-24T01:13:27;3.30;99.90
3226;DHT22;1625;49.884;8.666;2023-01-24T01:16:00;3.30;99.90
3226;DHT22;1625;49.884;8.666;2023-01-24T01:18:26;3.20;99.90
3226;DHT22;1625;49.884;8.666;2023-01-24T01:20:51;3.20;99.90
3226;DHT22;1625;49.884;8.666;2023-01-24T01:23:17;3.20;99.90
3226;DHT22;1625;49.884;8.666;2023-01-24T01:25:42;3.20;99.90
3226;DHT22;1625;49.884;8.666;2023-01-24T01:28:08;3.20;99.90
3226;DHT22;1625;49.884;8.666;2023-01-24T01:30:33;3.20;99.90
3226;DHT22;1625;49.884;8.666;2023-01-24T01:32:59;3.30;99.90
3226;DHT22;1625;49.884;8.666;2023-01-24T01:35:25;3.30;99.90
3226;DHT22;1625;49.884;8.666;2023-01-24T01:37:50;3.30;99.90
3226;DHT22;1625;49.884;8.666;2023-01-24T01:40:17;3.20;99.90
3226;DHT22;1625;49.884;8.666;2023-01-24T01:42:50;3.10;99.90
3226;DHT22;1625;49.884;8.666;2023-01-24T01:48:11;3.00;99.90
3226;DHT22;1625;49.884;8.666;2023-01-24T01:50:40;3.10;99.90
3226;DHT22;1625;49.884;8.666;2023-01-24T01:53:09;3.20;99.90
3226;DHT22;1625;49.884;8.666;2023-01-24T01:55:38;3.20;99.90
3226;DHT22;1625;49.884;8.666;2023-01-24T01:58:07;3.30;99.90
3226;DHT22;1625;49.884;8.666;2023-01-24T02:00:33;3.30;99.90
3226;DHT22;1625;49.884;8.666;2023-01-24T02:03:05;3.20;99.90
3226;DHT22;1625;49.884;8.666;2023-01-24T02:05:52;3.30;99.90
3226;DHT22;1625;49.884;8.666;2023-01-24T02:08:21;3.30;99.90
3226;DHT22;1625;49.884;8.666;2023-01-24T02:10:48;3.30;99.90
3226;DHT22;1625;49.884;8.666;2023-01-24T02:13:35;3.40;99.90
3226;DHT22;1625;49.884;8.666;2023-01-24T02:16:01;3.40;99.90
3226;DHT22;1625;49.884;8.666;2023-01-24T02:18:35;3.30;99.90
3226;DHT22;1625;49.884;8.666;2023-01-24T02:21:03;3.40;99.90
3226;DHT22;1625;49.884;8.666;2023-01-24T02:26:23;3.30;99.90
3226;DHT22;1625;49.884;8.666;2023-01-24T02:29:02;3.20;99.90
3226;DHT22;1625;49.884;8.666;2023-01-24T02:31:29;3.20;99.90
3226;DHT22;1625;49.884;8.666;2023-01-24T02:33:54;3.20;99.90
3226;DHT22;1625;49.884;8.666;2023-01-24T02:36:28;3.10;99.90
3226;DHT22;1625;49.884;8.666;2023-01-24T02:39:15;3.30;99.90
3226;DHT22;1625;49.884;8.666;2023-01-24T02:41:55;3.20;99.90
3226;DHT22;1625;49.884;8.666;2023-01-24T02:44:35;3.20;99.90
3226;DHT22;1625;49.884;8.666;2023-01-24T02:47:02;3.20;99.90
3226;DHT22;1625;49.884;8.666;2023-01-24T02:49:28;3.30;99.90
3226;DHT22;1625;49.884;8.666;2023-01-24T02:51:54;3.30;99.90
3226;DHT22;1625;49.884;8.666;2023-01-24T02:54:38;3.30;99.90
3226;DHT22;1625;49.884;8.666;2023-01-24T02:57:04;3.30;99.90
3226;DHT22;1625;49.884;8.666;2023-01-24T02:59:48;3.40;99.90
3226;DHT22;1625;49.884;8.666;2023-01-24T03:02:14;3.40;99.90
3226;DHT22;1625;49.884;8.666;2023-01-24T03:04:39;3.40;99.90
3226;DHT22;1625;49.884;8.666;2023-01-24T03:07:05;3.40;99.90
3226;DHT22;1625;49.884;8.666;2023-01-24T03:09:30;3.30;99.90
3226;DHT22;1625;49.884;8.666;2023-01-24T03:12:00;3.30;99.90
3226;DHT22;1625;49.884;8.666;2023-01-24T03:14:47;3.40;99.90
3226;DHT22;1625;49.884;8.666;2023-01-24T03:17:32;3.40;99.90
3226;DHT22;1625;49.884;8.666;2023-01-24T03:20:16;3.40;99.90
3226;DHT22;1625;49.884;8.666;2023-01-24T03:23:01;3.40;99.90
3226;DHT22;1625;49.884;8.666;2023-01-24T03:25:45;3.40;99.90
3226;DHT22;1625;49.884;8.666;2023-01-24T03:28:29;3.40;99.90
3226;DHT22;1625;49.884;8.666;2023-01-24T03:31:15;3.30;99.90
3226;DHT22;1625;49.884;8.666;2023-01-24T03:34:00;3.30;99.90
3226;DHT22;1625;49.884;8.666;2023-01-24T03:36:44;3.30;99.90
3226;DHT22;1625;49.884;8.666;2023-01-24T03:39:10;3.30;99.90
3226;DHT22;1625;49.884;8.666;2023-01-24T03:41:55;3.30;99.90
3226;DHT22;1625;49.884;8.666;2023-01-24T03:44:20;3.30;99.90
3226;DHT22;1625;49.884;8.666;2023-01-24T03:46:46;3.40;99.90
3226;DHT22;1625;49.884;8.666;2023-01-24T03:49:12;3.30;99.90
3226;DHT22;1625;49.884;8.666;2023-01-24T03:51:38;3.30;99.90
3226;DHT22;1625;49.884;8.666;2023-01-24T03:54:23;3.30;99.90
3226;DHT22;1625;49.884;8.666;2023-01-24T03:56:49;3.30;99.90
3226;DHT22;1625;49.884;8.666;2023-01-24T03:59:14;3.30;99.90
3226;DHT22;1625;49.884;8.666;2023-01-24T04:01:40;3.30;99.90
3226;DHT22;1625;49.884;8.666;2023-01-24T04:04:06;3.30;99.90
3226;DHT22;1625;49.884;8.666;2023-01-24T04:06:31;3.30;99.90
3226;DHT22;1625;49.884;8.666;2023-01-24T04:08:57;3.30;99.90
3226;DHT22;1625;49.884;8.666;2023-01-24T04:11:22;3.30;99.90
3226;DHT22;1625;49.884;8.666;2023-01-24T04:13:48;3.30;99.90
3226;DHT22;1625;49.884;8.666;2023-01-24T04:16:14;3.40;99.90
3226;DHT22;1625;49.884;8.666;2023-01-24T04:18:40;3.30;99.90
3226;DHT22;1625;49.884;8.666;2023-01-24T04:21:06;3.40;99.90
3226;DHT22;1625;49.884;8.666;2023-01-24T04:23:31;3.50;99.90
3226;DHT22;1625;49.884;8.666;2023-01-24T04:25:57;3.50;99.90
3226;DHT22;1625;49.884;8.666;2023-01-24T04:28:25;3.40;99.90
3226;DHT22;1625;49.884;8.666;2023-01-24T04:30:58;3.30;99.90
3226;DHT22;1625;49.884;8.666;2023-01-24T04:33:24;3.40;99.90
3226;DHT22;1625;49.884;8.666;2023-01-24T04:35:50;3.40;99.90
3226;DHT22;1625;49.884;8.666;2023-01-24T04:38:16;3.40;99.90
3226;DHT22;1625;49.884;8.666;2023-01-24T04:40:41;3.40;99.90
3226;DHT22;1625;49.884;8.666;2023-01-24T04:43:07;3.40;99.90
3226;DHT22;1625;49.884;8.666;2023-01-24T04:45:32;3.40;99.90
3226;DHT22;1625;49.884;8.666;2023-01-24T04:47:58;3.40;99.90
3226;DHT22;1625;49.884;8.666;2023-01-24T04:50:24;3.30;99.90
3226;DHT22;1625;49.884;8.666;2023-01-24T04:52:49;3.30;99.90
3226;DHT22;1625;49.884;8.666;2023-01-24T04:55:15;3.30;99.90
3226;DHT22;1625;49.884;8.666;2023-01-24T04:57:40;3.30;99.90
3226;DHT22;1625;49.884;8.666;2023-01-24T05:00:07;3.40;99.90
3226;DHT22;1625;49.884;8.666;2023-01-24T05:02:35;3.30;99.90
3226;DHT22;1625;49.884;8.666;2023-01-24T05:05:03;3.20;99.90
3226;DHT22;1625;49.884;8.666;2023-01-24T05:07:29;3.30;99.90
3226;DHT22;1625;49.884;8.666;2023-01-24T05:09:54;3.30;99.90
3226;DHT22;1625;49.884;8.666;2023-01-24T05:12:20;3.40;99.90
3226;DHT22;1625;49.884;8.666;2023-01-24T05:14:45;3.40;99.90
3226;DHT22;1625;49.884;8.666;2023-01-24T05:17:11;3.30;99.90
3226;DHT22;1625;49.884;8.666;2023-01-24T05:19:36;3.30;99.90
3226;DHT22;1625;49.884;8.666;2023-01-24T05:22:04;3.20;99.90
3226;DHT22;1625;49.884;8.666;2023-01-24T05:24:29;3.10;99.90
3226;DHT22;1625;49.884;8.666;2023-01-24T05:26:55;3.30;99.90
3226;DHT22;1625;49.884;8.666;2023-01-24T05:29:20;3.20;99.90
3226;DHT22;1625;49.884;8.666;2023-01-24T05:31:46;3.30;99.90
3226;DHT22;1625;49.884;8.666;2023-01-24T05:34:11;3.30;99.90
3226;DHT22;1625;49.884;8.666;2023-01-24T05:36:37;3.30;99.90
3226;DHT22;1625;49.884;8.666;2023-01-24T05:39:02;3.30;99.90
3226;DHT22;1625;49.884;8.666;2023-01-24T05:41:28;3.30;99.90
3226;DHT22;1625;49.884;8.666;2023-01-24T05:43:54;3.30;99.90
3226;DHT22;1625;49.884;8.666;2023-01-24T05:46:21;3.30;99.90
3226;DHT22;1625;49.884;8.666;2023-01-24T05:48:48;3.30;99.90
3226;DHT22;1625;49.884;8.666;2023-01-24T05:51:16;3.30;99.90
3226;DHT22;1625;49.884;8.666;2023-01-24T05:53:43;3.30;99.90
3226;DHT22;1625;49.884;8.666;2023-01-24T05:56:17;3.40;99.90
3226;DHT22;1625;49.884;8.666;2023-01-24T05:58:44;3.50;99.90
3226;DHT22;1625;49.884;8.666;2023-01-24T06:03:39;3.40;99.90
3226;DHT22;1625;49.884;8.666;2023-01-24T06:06:05;3.20;99.90
3226;DHT22;1625;49.884;8.666;2023-01-24T06:08:31;3.40;99.90
3226;DHT22;1625;49.884;8.666;2023-01-24T06:11:02;3.40;99.90
3226;DHT22;1625;49.884;8.666;2023-01-24T06:13:28;3.40;99.90
3226;DHT22;1625;49.884;8.666;2023-01-24T06:16:09;3.20;99.90
3226;DHT22;1625;49.884;8.666;2023-01-24T06:22:34;3.30;99.90
3226;DHT22;1625;49.884;8.666;2023-01-24T06:25:05;3.30;99.90
3226;DHT22;1625;49.884;8.666;2023-01-24T06:27:34;3.30;99.90
3226;DHT22;1625;49.884;8.666;2023-01-24T06:30:02;3.30;99.90
3226;DHT22;1625;49.884;8.666;2023-01-24T06:36:14;3.50;99.90
3226;DHT22;1625;49.884;8.666;2023-01-24T06:38:47;3.50;99.90
3226;DHT22;1625;49.884;8.666;2023-01-24T06:48:49;3.40;99.90
3226;DHT22;1625;49.884;8.666;2023-01-24T06:51:52;3.40;99.90
3226;DHT22;1625;49.884;8.666;2023-01-24T07:04:57;3.60;99.90
3226;DHT22;1625;49.884;8.666;2023-01-24T07:07:23;3.60;99.90
3226;DHT22;1625;49.884;8.666;2023-01-24T07:13:49;3.60;99.90
3226;DHT22;1625;49.884;8.666;2023-01-24T07:16:34;3.50;99.90
3226;DHT22;1625;49.884;8.666;2023-01-24T07:19:00;3.60;99.90
3226;DHT22;1625;49.884;8.666;2023-01-24T07:21:27;3.50;99.90
3226;DHT22;1625;49.884;8.666;2023-01-24T07:23:58;3.50;99.90
3226;DHT22;1625;49.884;8.666;2023-01-24T07:26:26;3.40;99.90
3226;DHT22;1625;49.884;8.666;2023-01-24T07:29:27;3.50;99.90
3226;DHT22;1625;49.884;8.666;2023-01-24T07:31:59;3.40;99.90
3226;DHT22;1625;49.884;8.666;2023-01-24T08:21:38;3.60;99.90
3226;DHT22;1625;49.884;8.666;2023-01-24T08:32:02;3.70;99.90
3226;DHT22;1625;49.884;8.666;2023-01-24T08:35:36;3.60;99.90
3226;DHT22;1625;49.884;8.666;2023-01-24T08:38:54;3.60;99.90
3226;DHT22;1625;49.884;8.666;2023-01-24T08:42:31;3.50;99.90
3226;DHT22;1625;49.884;8.666;2023-01-24T08:45:11;3.60;99.90
3226;DHT22;1625;49.884;8.666;2023-01-24T08:47:53;3.60;99.90
3226;DHT22;1625;49.884;8.666;2023-01-24T08:50:33;3.60;99.90
3226;DHT22;1625;49.884;8.666;2023-01-24T08:55:24;3.70;99.90
3226;DHT22;1625;49.884;8.666;2023-01-24T08:57:50;3.80;99.90
3226;DHT22;1625;49.884;8.666;2023-01-24T09:07:10;4.00;99.90
3226;DHT22;1625;49.884;8.666;2023-01-24T09:09:36;4.10;99.90
3226;DHT22;1625;49.884;8.666;2023-01-24T09:12:26;4.00;99.90
3226;DHT22;1625;49.884;8.666;2023-01-24T09:14:59;3.90;99.90
3226;DHT22;1625;49.884;8.666;2023-01-24T09:17:28;3.90;99.90
3226;DHT22;1625;49.884;8.666;2023-01-24T09:22:29;3.90;99.90
3226;DHT22;1625;49.884;8.666;2023-01-24T09:25:13;3.80;99.90
3226;DHT22;1625;49.884;8.666;2023-01-24T09:37:50;3.90;99.90
3226;DHT22;1625;49.884;8.666;2023-01-24T09:47:21;3.90;99.90
3226;DHT22;1625;49.884;8.666;2023-01-24T09:50:04;3.80;99.90
3226;DHT22;1625;49.884;8.666;2023-01-24T09:53:37;3.80;99.90
3226;DHT22;1625;49.884;8.666;2023-01-24T10:00:19;3.80;99.90
3226;DHT22;1625;49.884;8.666;2023-01-24T10:02:50;3.90;99.90
3226;DHT22;1625;49.884;8.666;2023-01-24T10:05:48;4.10;99.90
3226;DHT22;1625;49.884;8.666;2023-01-24T10:25:39;4.00;99.90
3226;DHT22;1625;49.884;8.666;2023-01-24T10:28:34;3.90;99.90
3226;DHT22;1625;49.884;8.666;2023-01-24T10:41:26;4.20;99.90
3226;DHT22;1625;49.884;8.666;2023-01-24T10:51:32;4.10;99.90
3226;DHT22;1625;49.884;8.666;2023-01-24T10:54:02;4.30;99.90
3226;DHT22;1625;49.884;8.666;2023-01-24T10:56:53;4.30;99.90
3226;DHT22;1625;49.884;8.666;2023-01-24T10:59:20;4.40;99.90
3226;DHT22;1625;49.884;8.666;2023-01-24T11:01:47;4.40;99.90
3226;DHT22;1625;49.884;8.666;2023-01-24T11:04:29;4.40;99.90
3226;DHT22;1625;49.884;8.666;2023-01-24T11:06:55;4.40;99.90
3226;DHT22;1625;49.884;8.666;2023-01-24T11:09:27;4.50;99.90
3226;DHT22;1625;49.884;8.666;2023-01-24T11:11:56;4.50;99.90
3226;DHT22;1625;49.884;8.666;2023-01-24T11:14:25;4.60;99.90
3226;DHT22;1625;49.884;8.666;2023-01-24T11:16:56;4.60;99.90
3226;DHT22;1625;49.884;8.666;2023-01-24T11:19:39;4.60;99.90
3226;DHT22;1625;49.884;8.666;2023-01-24T11:22:23;4.60;99.90
3226;DHT22;1625;49.884;8.666;2023-01-24T11:24:49;4.60;99.90
3226;DHT22;1625;49.884;8.666;2023-01-24T11:27:17;4.60;99.90
3226;DHT22;1625;49.884;8.666;2023-01-24T12:27:23;4.10;99.90
3226;DHT22;1625;49.884;8.666;2023-01-24T13:34:04;4.60;99.90
3226;DHT22;1625;49.884;8.666;2023-01-24T14:12:39;4.90;99.90
3226;DHT22;1625;49.884;8.666;2023-01-24T14:41:36;4.90;99.90
3226;DHT22;1625;49.884;8.666;2023-01-24T14:44:02;4.80;99.90
3226;DHT22;1625;49.884;8.666;2023-01-24T14:56:49;4.90;99.90
3226;DHT22;1625;49.884;8.666;2023-01-24T15:40:18;4.80;99.90
3226;DHT22;1625;49.884;8.666;2023-01-24T15:46:42;4.60;99.90
3226;DHT22;1625;49.884;8.666;2023-01-24T16:40:31;4.40;99.90
3226;DHT22;1625;49.884;8.666;2023-01-24T16:56:22;4.30;99.90
3226;DHT22;1625;49.884;8.666;2023-01-24T16:58:48;4.40;99.90
3226;DHT22;1625;49.884;8.666;2023-01-24T17:01:13;4.40;99.90
3226;DHT22;1625;49.884;8.666;2023-01-24T17:03:44;4.40;99.90
3226;DHT22;1625;49.884;8.666;2023-01-24T17:06:31;4.40;99.90
3226;DHT22;1625;49.884;8.666;2023-01-24T17:24:11;4.50;99.90
3226;DHT22;1625;49.884;8.666;2023-01-24T17:33:25;4.50;99.90
3226;DHT22;1625;49.884;8.666;2023-01-24T18:00:03;4.40;99.90
3226;DHT22;1625;49.884;8.666;2023-01-24T18:42:58;4.40;99.90
3226;DHT22;1625;49.884;8.666;2023-01-24T18:55:31;4.50;99.90
3226;DHT22;1625;49.884;8.666;2023-01-24T18:58:10;4.60;99.90
3226;DHT22;1625;49.884;8.666;2023-01-24T19:04:15;4.50;99.90
3226;DHT22;1625;49.884;8.666;2023-01-24T19:06:46;4.30;99.90
3226;DHT22;1625;49.884;8.666;2023-01-24T19:09:14;4.20;99.90
3226;DHT22;1625;49.884;8.666;2023-01-24T19:11:40;4.30;99.90
3226;DHT22;1625;49.884;8.666;2023-01-24T19:14:12;4.30;99.90
3226;DHT22;1625;49.884;8.666;2023-01-24T19:17:09;4.30;99.90
3226;DHT22;1625;49.884;8.666;2023-01-24T19:19:56;4.40;99.90
3226;DHT22;1625;49.884;8.666;2023-01-24T19:22:21;4.50;99.90
3226;DHT22;1625;49.884;8.666;2023-01-24T19:24:58;4.50;99.90
3226;DHT22;1625;49.884;8.666;2023-01-24T19:27:24;4.60;99.90
3226;DHT22;1625;49.884;8.666;2023-01-24T19:29:49;4.50;99.90
3226;DHT22;1625;49.884;8.666;2023-01-24T19:32:15;4.40;99.90
3226;DHT22;1625;49.884;8.666;2023-01-24T19:34:40;4.40;99.90
3226;DHT22;1625;49.884;8.666;2023-01-24T19:37:09;4.40;99.90
3226;DHT22;1625;49.884;8.666;2023-01-24T19:39:35;4.40;99.90
3226;DHT22;1625;49.884;8.666;2023-01-24T19:42:01;4.50;99.90
3226;DHT22;1625;49.884;8.666;2023-01-24T19:44:27;4.40;99.90
3226;DHT22;1625;49.884;8.666;2023-01-24T19:46:52;4.50;99.90
3226;DHT22;1625;49.884;8.666;2023-01-24T19:49:18;4.40;99.90
3226;DHT22;1625;49.884;8.666;2023-01-24T19:51:44;4.40;99.90
3226;DHT22;1625;49.884;8.666;2023-01-24T19:54:10;4.40;99.90
3226;DHT22;1625;49.884;8.666;2023-01-24T19:56:35;4.40;99.90
3226;DHT22;1625;49.884;8.666;2023-01-24T19:59:01;4.50;99.90
3226;DHT22;1625;49.884;8.666;2023-01-24T20:01:40;4.50;99.90
3226;DHT22;1625;49.884;8.666;2023-01-24T20:04:06;4.50;99.90
3226;DHT22;1625;49.884;8.666;2023-01-24T20:06:31;4.50;99.90
3226;DHT22;1625;49.884;8.666;2023-01-24T20:08:58;4.50;99.90
3226;DHT22;1625;49.884;8.666;2023-01-24T20:11:24;4.50;99.90
3226;DHT22;1625;49.884;8.666;2023-01-24T20:13:56;4.50;99.90
3226;DHT22;1625;49.884;8.666;2023-01-24T20:16:25;4.60;99.90
3226;DHT22;1625;49.884;8.666;2023-01-24T20:18:56;4.50;99.90
3226;DHT22;1625;49.884;8.666;2023-01-24T20:21:32;4.50;99.90
3226;DHT22;1625;49.884;8.666;2023-01-24T20:27:49;4.80;99.90
3226;DHT22;1625;49.884;8.666;2023-01-24T21:11:05;4.40;99.90
3226;DHT22;1625;49.884;8.666;2023-01-24T21:13:59;4.40;99.90
3226;DHT22;1625;49.884;8.666;2023-01-24T21:16:27;4.40;99.90
3226;DHT22;1625;49.884;8.666;2023-01-24T21:18:59;4.30;99.90
3226;DHT22;1625;49.884;8.666;2023-01-24T21:21:28;4.40;99.90
3226;DHT22;1625;49.884;8.666;2023-01-24T21:23:58;4.30;99.90
3226;DHT22;1625;49.884;8.666;2023-01-24T21:36:38;4.20;99.90
3226;DHT22;1625;49.884;8.666;2023-01-24T21:39:06;4.20;99.90
3226;DHT22;1625;49.884;8.666;2023-01-24T21:41:33;4.50;99.90
3226;DHT22;1625;49.884;8.666;2023-01-24T21:44:17;4.40;99.90
3226;DHT22;1625;49.884;8.666;2023-01-24T21:46:42;4.30;99.90
3226;DHT22;1625;49.884;8.666;2023-01-24T21:49:09;4.20;99.90
3226;DHT22;1625;49.884;8.666;2023-01-24T21:51:45;4.40;99.90
3226;DHT22;1625;49.884;8.666;2023-01-24T21:54:17;4.50;99.90
3226;DHT22;1625;49.884;8.666;2023-01-24T21:56:48;4.50;99.90
3226;DHT22;1625;49.884;8.666;2023-01-24T21:59:34;4.40;99.90
3226;DHT22;1625;49.884;8.666;2023-01-24T22:02:05;4.40;99.90
3226;DHT22;1625;49.884;8.666;2023-01-24T22:04:32;4.40;99.90
3226;DHT22;1625;49.884;8.666;2023-01-24T22:06:58;4.40;99.90
3226;DHT22;1625;49.884;8.666;2023-01-24T22:09:24;4.40;99.90
3226;DHT22;1625;49.884;8.666;2023-01-24T22:11:51;4.40;99.90
3226;DHT22;1625;49.884;8.666;2023-01-24T22:14:21;4.40;99.90
3226;DHT22;1625;49.884;8.666;2023-01-24T22:16:49;4.50;99.90
3226;DHT22;1625;49.884;8.666;2023-01-24T22:19:17;4.30;99.90
3226;DHT22;1625;49.884;8.666;2023-01-24T22:24:59;4.20;99.90
3226;DHT22;1625;49.884;8.666;2023-01-24T22:27:25;4.30;99.90
3226;DHT22;1625;49.884;8.666;2023-01-24T22:29:51;4.30;99.90
3226;DHT22;1625;49.884;8.666;2023-01-24T22:32:19;4.40;99.90
3226;DHT22;1625;49.884;8.666;2023-01-24T22:34:46;4.40;99.90
3226;DHT22;1625;49.884;8.666;2023-01-24T22:37:32;4.40;99.90
3226;DHT22;1625;49.884;8.666;2023-01-24T22:39:58;4.40;99.90
3226;DHT22;1625;49.884;8.666;2023-01-24T22:42:24;4.40;99.90
3226;DHT22;1625;49.884;8.666;2023-01-24T22:44:50;4.40;99.90
3226;DHT22;1625;49.884;8.666;2023-01-24T22:47:17;4.40;99.90
3226;DHT22;1625;49.884;8.666;2023-01-24T22:49:43;4.30;99.90
3226;DHT22;1625;49.884;8.666;2023-01-24T22:52:09;4.30;99.90
3226;DHT22;1625;49.884;8.666;2023-01-24T22:54:35;4.40;99.90
3226;DHT22;1625;49.884;8.666;2023-01-24T22:57:02;4.30;99.90
3226;DHT22;1625;49.884;8.666;2023-01-24T22:59:27;4.30;99.90
3226;DHT22;1625;49.884;8.666;2023-01-24T23:01:53;4.30;99.90
3226;DHT22;1625;49.884;8.666;2023-01-24T23:04:19;4.30;99.90
3226;DHT22;1625;49.884;8.666;2023-01-24T23:06:45;4.40;99.90
3226;DHT22;1625;49.884;8.666;2023-01-24T23:09:11;4.40;99.90
3226;DHT22;1625;49.884;8.666;2023-01-24T23:11:37;4.30;99.90
3226;DHT22;1625;49.884;8.666;2023-01-24T23:14:02;4.20;99.90
3226;DHT22;1625;49.884;8.666;2023-01-24T23:16:54;4.20;99.90
3226;DHT22;1625;49.884;8.666;2023-01-24T23:22:08;4.20;99.90
3226;DHT22;1625;49.884;8.666;2023-01-24T23:24:34;4.30;99.90
3226;DHT22;1625;49.884;8.666;2023-01-24T23:26:59;4.30;99.90
3226;DHT22;1625;49.884;8.666;2023-01-24T23:31:57;4.30;99.90
3226;DHT22;1625;49.884;8.666;2023-01-24T23:34:38;4.30;99.90
3226;DHT22;1625;49.884;8.666;2023-01-24T23:37:04;4.30;99.90
3226;DHT22;1625;49.884;8.666;2023-01-24T23:39:30;4.30;99.90
3226;DHT22;1625;49.884;8.666;2023-01-24T23:41:56;4.30;99.90
3226;DHT22;1625;49.884;8.666;2023-01-24T23:44:21;4.20;99.90
3226;DHT22;1625;49.884;8.666;2023-01-24T23:46:47;4.30;99.90
3226;DHT22;1625;49.884;8.666;2023-01-24T23:49:13;4.30;99.90
3226;DHT22;1625;49.884;8.666;2023-01-24T23:51:38;4.20;99.90
3226;DHT22;1625;49.884;8.666;2023-01-24T23:54:04;4.30;99.90
3226;DHT22;1625;49.884;8.666;2023-01-24T23:56:30;4.20;99.90
3226;DHT22;1625;49.884;8.666;2023-01-24T23:58:55;4.30;99.90
